createdAt,value
2019-05-12T00:01:38.900Z,7.96
2019-05-12T00:03:18.954Z,7.94
2019-05-12T00:04:58.591Z,7.9
2019-05-12T00:06:38.691Z,7.89
2019-05-12T00:08:18.916Z,7.86
2019-05-12T00:09:58.571Z,7.84
2019-05-12T00:11:38.064Z,7.78
2019-05-12T00:13:18.968Z,7.77
2019-05-12T00:14:58.971Z,8.34
2019-05-12T00:16:38.522Z,7.74
2019-05-12T00:18:18.279Z,7.69
2019-05-12T00:19:58.437Z,7.65
2019-05-12T00:21:39.803Z,7.62
2019-05-12T00:23:26.850Z,7.59
2019-05-12T00:25:09.232Z,7.56
2019-05-12T00:26:48.635Z,7.52
2019-05-12T00:28:28.350Z,7.49
2019-05-12T00:30:09.873Z,7.45
2019-05-12T00:31:49.757Z,7.42
2019-05-12T00:33:29.272Z,7.41
2019-05-12T00:35:08.766Z,7.39
2019-05-12T00:36:48.598Z,7.33
2019-05-12T00:38:28.280Z,7.34
2019-05-12T00:40:08.715Z,7.29
2019-05-12T00:41:48.501Z,7.25
2019-05-12T00:43:28.219Z,7.24
2019-05-12T00:45:08.183Z,7.17
2019-05-12T00:46:48.717Z,7.15
2019-05-12T00:48:28.570Z,7.15
2019-05-12T00:50:08.319Z,7.11
2019-05-12T00:51:48.485Z,7.11
2019-05-12T00:53:36.950Z,7.1
2019-05-12T00:55:22.585Z,7.07
2019-05-12T00:57:03.855Z,7.07
2019-05-12T00:58:45.698Z,7.07
2019-05-12T01:00:28.987Z,7.04
2019-05-12T01:02:09.116Z,7.02
2019-05-12T01:03:48.607Z,7.02
2019-05-12T01:05:29.344Z,7.01
2019-05-12T01:07:08.884Z,7.02
2019-05-12T01:08:48.432Z,6.99
2019-05-12T01:10:28.496Z,6.98
2019-05-12T01:12:08.278Z,6.98
2019-05-12T01:13:48.524Z,6.94
2019-05-12T01:15:28.845Z,6.95
2019-05-12T01:17:08.376Z,6.93
2019-05-12T01:18:48.125Z,6.94
2019-05-12T01:20:28.229Z,6.93
2019-05-12T01:22:08.120Z,6.91
2019-05-12T01:23:54.394Z,6.88
2019-05-12T01:25:58.471Z,6.88
2019-05-12T01:27:51.113Z,6.88
2019-05-12T01:29:30.569Z,6.84
2019-05-12T01:31:10.007Z,6.85
2019-05-12T01:32:49.435Z,6.81
2019-05-12T01:34:28.899Z,6.79
2019-05-12T01:36:08.369Z,6.76
2019-05-12T01:37:48.368Z,6.72
2019-05-12T01:39:27.698Z,6.7
2019-05-12T01:41:08.664Z,6.65
2019-05-12T01:42:48.469Z,6.63
2019-05-12T01:44:28.688Z,6.6
2019-05-12T01:46:08.300Z,6.54
2019-05-12T01:47:48.539Z,6.5
2019-05-12T01:49:28.947Z,6.49
2019-05-12T01:51:08.608Z,6.46
2019-05-12T01:52:48.045Z,6.45
2019-05-12T01:54:27.835Z,6.44
2019-05-12T01:56:07.903Z,6.43
2019-05-12T01:57:48.565Z,6.41
2019-05-12T01:59:28.697Z,6.4
2019-05-12T02:01:15.270Z,7.03
2019-05-12T02:02:58.374Z,6.37
2019-05-12T02:04:38.118Z,6.36
2019-05-12T02:06:18.420Z,6.34
2019-05-12T02:08:04.175Z,6.95
2019-05-12T02:09:47.982Z,6.31
2019-05-12T02:11:28.842Z,6.33
2019-05-12T02:13:08.410Z,6.31
2019-05-12T02:14:48.597Z,6.34
2019-05-12T02:16:28.252Z,6.36
2019-05-12T02:18:08.994Z,6.37
2019-05-12T02:19:48.745Z,6.35
2019-05-12T02:21:28.111Z,6.35
2019-05-12T02:23:08.832Z,6.34
2019-05-12T02:24:48.618Z,6.3
2019-05-12T02:26:29.021Z,6.27
2019-05-12T02:28:09.419Z,6.24
2019-05-12T02:29:49.106Z,6.21
2019-05-12T02:31:29.366Z,6.2
2019-05-12T02:33:09.213Z,6.2
2019-05-12T02:34:54.740Z,6.21
2019-05-12T02:36:34.580Z,6.21
2019-05-12T02:38:14.579Z,6.23
2019-05-12T02:39:55.497Z,6.27
2019-05-12T02:41:35.369Z,6.25
2019-05-12T02:43:15.344Z,6.27
2019-05-12T02:44:55.229Z,6.3
2019-05-12T02:46:34.940Z,6.26
2019-05-12T02:48:14.753Z,6.28
2019-05-12T02:49:54.563Z,6.28
2019-05-12T02:51:35.111Z,6.3
2019-05-12T02:53:14.932Z,6.31
2019-05-12T02:54:56.763Z,6.3
2019-05-12T02:56:39.590Z,6.9
2019-05-12T02:58:25.350Z,6.29
2019-05-12T03:00:05.339Z,6.25
2019-05-12T03:01:45.201Z,6.26
2019-05-12T03:03:25.216Z,6.28
2019-05-12T03:05:05.639Z,6.27
2019-05-12T03:06:45.379Z,6.28
2019-05-12T03:08:25.758Z,6.3
2019-05-12T03:10:05.469Z,6.33
2019-05-12T03:11:45.010Z,6.34
2019-05-12T03:13:25.358Z,6.36
2019-05-12T03:15:05.537Z,6.36
2019-05-12T03:16:45.419Z,6.39
2019-05-12T03:18:25.517Z,6.43
2019-05-12T03:20:05.288Z,6.44
2019-05-12T03:21:44.936Z,6.45
2019-05-12T03:23:24.877Z,6.45
2019-05-12T03:25:14.876Z,6.46
2019-05-12T03:27:17.670Z,6.15
2019-05-12T03:28:59.954Z,6.46
2019-05-12T03:30:49.357Z,7.12
2019-05-12T03:32:37.655Z,6.51
2019-05-12T03:34:28.495Z,6.51
2019-05-12T03:36:17.713Z,6.54
2019-05-12T03:38:24.765Z,6.28
2019-05-12T03:40:10.533Z,6.56
2019-05-12T03:42:00.886Z,7.19
2019-05-12T03:43:44.808Z,6.63
2019-05-12T03:45:25.202Z,6.64
2019-05-12T03:47:05.134Z,6.63
2019-05-12T03:48:45.467Z,6.64
2019-05-12T03:50:24.720Z,7.26
2019-05-12T03:52:05.133Z,6.64
2019-05-12T03:53:45.337Z,6.65
2019-05-12T03:55:35.199Z,6.7
2019-05-12T03:57:34.170Z,6.42
2019-05-12T03:59:15.238Z,7.33
2019-05-12T04:00:55.401Z,6.72
2019-05-12T04:02:34.996Z,6.74
2019-05-12T04:04:15.140Z,6.74
2019-05-12T04:05:59.343Z,6.75
2019-05-12T04:07:41.253Z,6.79
2019-05-12T04:09:24.551Z,6.78
2019-05-12T04:11:05.242Z,6.79
2019-05-12T04:12:45.205Z,6.8
2019-05-12T04:14:25.305Z,6.82
2019-05-12T04:16:05.166Z,6.83
2019-05-12T04:17:45.332Z,6.86
2019-05-12T04:19:25.100Z,6.87
2019-05-12T04:21:05.628Z,6.93
2019-05-12T04:22:45.230Z,6.95
2019-05-12T04:24:24.994Z,7
2019-05-12T04:26:11.597Z,7.02
2019-05-12T04:27:55.029Z,7.01
2019-05-12T04:29:34.943Z,7.03
2019-05-12T04:31:15.407Z,7.05
2019-05-12T04:32:55.437Z,7.1
2019-05-12T04:34:44.657Z,7.73
2019-05-12T04:36:24.897Z,7.15
2019-05-12T04:38:05.012Z,7.16
2019-05-12T04:39:44.811Z,7.19
2019-05-12T04:41:25.940Z,7.19
2019-05-12T04:43:06.714Z,7.24
2019-05-12T04:44:49.130Z,7.27
2019-05-12T04:46:34.260Z,7.29
2019-05-12T04:48:15.046Z,7.37
2019-05-12T04:50:05.088Z,7.39
2019-05-12T04:51:45.169Z,7.42
2019-05-12T04:53:25.266Z,7.43
2019-05-12T04:55:04.977Z,7.43
2019-05-12T04:56:44.728Z,7.44
2019-05-12T04:58:25.434Z,7.45
2019-05-12T05:00:05.398Z,7.48
2019-05-12T05:01:45.543Z,7.54
2019-05-12T05:03:25.107Z,7.56
2019-05-12T05:05:05.438Z,7.6
2019-05-12T05:06:45.322Z,7.6
2019-05-12T05:08:24.891Z,7.59
2019-05-12T05:10:04.733Z,7.6
2019-05-12T05:11:45.029Z,7.64
2019-05-12T05:13:24.757Z,7.7
2019-05-12T05:15:05.351Z,7.72
2019-05-12T05:16:45.463Z,7.74
2019-05-12T05:18:24.413Z,7.75
2019-05-12T05:20:04.175Z,7.76
2019-05-12T05:21:43.829Z,7.85
2019-05-12T05:23:24.099Z,7.9
2019-05-12T05:25:04.308Z,7.96
2019-05-12T05:26:43.857Z,7.99
2019-05-12T05:28:23.679Z,8.03
2019-05-12T05:30:05.296Z,8.66
2019-05-12T05:31:44.730Z,8.09
2019-05-12T05:33:24.134Z,8.13
2019-05-12T05:35:05.718Z,8.14
2019-05-12T05:36:50.943Z,8.18
2019-05-12T05:38:39.959Z,8.22
2019-05-12T05:40:30.753Z,8.32
2019-05-12T05:42:13.480Z,8.37
2019-05-12T05:43:58.467Z,8.45
2019-05-12T05:45:39.610Z,8.48
2019-05-12T05:47:25.330Z,8.52
2019-05-12T05:49:08.302Z,8.55
2019-05-12T05:50:49.754Z,8.52
2019-05-12T05:52:38.594Z,8.56
2019-05-12T05:56:18.694Z,8.6
2019-05-12T05:58:29.721Z,8.32
2019-05-12T06:00:26.268Z,8.73
2019-05-12T06:02:05.829Z,8.76
2019-05-12T06:03:45.240Z,8.77
2019-05-12T06:05:28.762Z,8.79
2019-05-12T06:07:23.400Z,9.45
2019-05-12T06:09:26.413Z,8.61
2019-05-12T06:11:08.518Z,8.91
2019-05-12T06:12:50.749Z,9.55
2019-05-12T06:14:34.183Z,9.01
2019-05-12T06:16:34.031Z,9.69
2019-05-12T06:18:13.762Z,9.09
2019-05-12T06:19:53.843Z,9.09
2019-05-12T06:21:34.511Z,9.04
2019-05-12T06:23:18.683Z,9.03
2019-05-12T06:25:04.762Z,9.07
2019-05-12T06:26:56.364Z,9.14
2019-05-12T06:29:04.380Z,8.91
2019-05-12T06:30:57.973Z,9.29
2019-05-12T06:32:41.085Z,9.36
2019-05-12T06:34:31.020Z,9.44
2019-05-12T06:36:13.561Z,9.52
2019-05-12T06:38:04.945Z,9.54
2019-05-12T06:39:44.605Z,9.56
2019-05-12T06:41:33.773Z,9.6
2019-05-12T06:43:13.971Z,9.65
2019-05-12T06:44:54.727Z,9.71
2019-05-12T06:46:38.639Z,9.77
2019-05-12T06:48:37.751Z,9.86
2019-05-12T06:50:34.336Z,9.86
2019-05-12T06:52:53.101Z,9.88
2019-05-12T06:54:33.521Z,9.93
2019-05-12T06:56:39.503Z,9.66
2019-05-12T06:58:27.413Z,10.05
2019-05-12T07:00:14.410Z,10.13
2019-05-12T07:02:05.659Z,10.21
2019-05-12T07:03:45.127Z,10.25
2019-05-12T07:05:27.953Z,10.24
2019-05-12T07:07:19.488Z,10.39
2019-05-12T07:09:24.095Z,10.51
2019-05-12T07:11:41.465Z,10.36
2019-05-12T07:14:00.188Z,10.51
2019-05-12T07:16:10.020Z,10.59
2019-05-12T07:18:13.688Z,10.59
2019-05-12T07:20:19.795Z,10.51
2019-05-12T07:22:22.468Z,11.38
2019-05-12T07:24:26.457Z,10.63
2019-05-12T07:26:13.796Z,11.09
2019-05-12T07:28:06.841Z,11.81
2019-05-12T07:29:49.215Z,11.19
2019-05-12T07:31:30.573Z,11.23
2019-05-12T07:33:14.309Z,11.97
2019-05-12T07:34:54.502Z,11.42
2019-05-12T07:36:34.112Z,11.52
2019-05-12T07:38:20.735Z,11.62
2019-05-12T07:40:04.776Z,11.59
2019-05-12T07:41:50.696Z,11.52
2019-05-12T07:43:33.752Z,11.48
2019-05-12T07:45:20.088Z,11.44
2019-05-12T07:47:03.662Z,11.53
2019-05-12T07:48:46.414Z,11.63
2019-05-12T07:50:30.658Z,11.72
2019-05-12T07:52:13.747Z,11.83
2019-05-12T07:53:55.072Z,11.91
2019-05-12T07:55:39.535Z,12.6
2019-05-12T07:57:29.482Z,12.1
2019-05-12T07:59:41.125Z,11.77
2019-05-12T08:01:23.559Z,10.89
2019-05-12T08:03:06.014Z,12.74
2019-05-12T08:05:03.638Z,12.8
2019-05-12T08:06:54.810Z,12.3
2019-05-12T08:08:34.304Z,11.23
2019-05-12T08:10:31.245Z,12.61
2019-05-12T08:12:16.198Z,11.52
2019-05-12T08:14:00.223Z,11.41
2019-05-12T08:15:45.606Z,11.44
2019-05-12T08:17:33.658Z,11.51
2019-05-12T08:19:14.731Z,11.66
2019-05-12T08:21:08.479Z,11.79
2019-05-12T08:22:50.298Z,11.72
2019-05-12T08:24:45.756Z,11.51
2019-05-12T08:26:33.558Z,11.59
2019-05-12T08:28:20.539Z,11.66
2019-05-12T08:30:09.525Z,11.82
2019-05-12T08:31:51.710Z,11.98
2019-05-12T08:33:34.656Z,12.13
2019-05-12T08:35:25.403Z,12.21
2019-05-12T08:37:24.344Z,12.42
2019-05-12T08:39:11.688Z,12.63
2019-05-12T08:41:04.231Z,12.61
2019-05-12T08:42:43.926Z,12.59
2019-05-12T08:44:32.931Z,12.57
2019-05-12T08:46:20.551Z,12.27
2019-05-12T08:48:03.815Z,11.99
2019-05-12T08:49:58.998Z,11.76
2019-05-12T08:51:41.336Z,11.71
2019-05-12T08:53:33.607Z,11.62
2019-05-12T08:55:16.170Z,11.47
2019-05-12T08:57:20.099Z,11.4
2019-05-12T08:59:18.131Z,11.32
2019-05-12T09:01:01.207Z,11.28
2019-05-12T09:02:45.904Z,11.3
2019-05-12T09:04:30.223Z,11.86
2019-05-12T09:06:15.339Z,12.48
2019-05-12T09:08:05.017Z,12.64
2019-05-12T09:09:44.574Z,12.58
2019-05-12T09:11:24.193Z,12.42
2019-05-12T09:13:04.285Z,12.51
2019-05-12T09:14:46.092Z,12.74
2019-05-12T09:16:29.260Z,12.85
2019-05-12T09:18:09.911Z,12.69
2019-05-12T09:19:54.782Z,12.37
2019-05-12T09:21:48.565Z,12.29
2019-05-12T09:23:32.595Z,12.48
2019-05-12T09:25:19.797Z,12.56
2019-05-12T09:27:04.863Z,12.48
2019-05-12T09:28:50.353Z,12.57
2019-05-12T09:30:33.558Z,12.94
2019-05-12T09:32:24.759Z,13.2
2019-05-12T09:34:11.466Z,13.37
2019-05-12T09:35:57.632Z,13.66
2019-05-12T09:37:40.265Z,14.05
2019-05-12T09:39:23.439Z,14.62
2019-05-12T09:41:15.849Z,15.22
2019-05-12T09:43:00.128Z,15.82
2019-05-12T09:44:48.505Z,15.82
2019-05-12T09:46:37.554Z,15.68
2019-05-12T09:48:18.829Z,15.52
2019-05-12T09:50:01.078Z,15.16
2019-05-12T09:51:54.378Z,14.74
2019-05-12T09:53:34.155Z,14.37
2019-05-12T09:55:30.038Z,14.07
2019-05-12T09:57:13.655Z,13.86
2019-05-12T09:59:01.277Z,13.89
2019-05-12T10:01:06.655Z,13.96
2019-05-12T10:02:58.816Z,14.1
2019-05-12T10:04:43.791Z,14.08
2019-05-12T10:06:35.225Z,14
2019-05-12T10:08:14.724Z,13.76
2019-05-12T10:09:57.520Z,13.5
2019-05-12T10:11:40.371Z,13.36
2019-05-12T10:13:34.429Z,13.18
2019-05-12T10:15:18.532Z,13.37
2019-05-12T10:17:07.805Z,14.07
2019-05-12T10:18:51.085Z,14.24
2019-05-12T10:20:35.062Z,14.32
2019-05-12T10:22:19.980Z,14.73
2019-05-12T10:24:05.101Z,15.57
2019-05-12T10:25:44.885Z,15.98
2019-05-12T10:27:27.025Z,15.99
2019-05-12T10:29:20.707Z,15.74
2019-05-12T10:31:04.129Z,15.51
2019-05-12T10:32:43.823Z,15.23
2019-05-12T10:34:24.101Z,15.09
2019-05-12T10:36:14.573Z,14.91
2019-05-12T10:37:54.022Z,14.59
2019-05-12T10:39:45.791Z,14.32
2019-05-12T10:41:25.280Z,14.62
2019-05-12T10:43:04.887Z,15
2019-05-12T10:44:44.328Z,15.33
2019-05-12T10:46:28.306Z,15.86
2019-05-12T10:48:08.033Z,16.41
2019-05-12T10:49:48.918Z,16.8
2019-05-12T10:51:30.346Z,17.28
2019-05-12T10:53:15.477Z,17.88
2019-05-12T10:54:58.072Z,18.28
2019-05-12T10:56:50.767Z,17.99
2019-05-12T10:58:33.569Z,17.49
2019-05-12T11:00:14.262Z,17.06
2019-05-12T11:02:03.475Z,17.16
2019-05-12T11:05:33.638Z,17.05
2019-05-12T11:07:13.653Z,17.31
2019-05-12T11:08:57.940Z,16.98
2019-05-12T11:10:40.069Z,17.1
2019-05-12T11:12:24.325Z,17.37
2019-05-12T11:14:08.081Z,17.31
2019-05-12T11:15:49.658Z,17.09
2019-05-12T11:17:33.152Z,17.33
2019-05-12T11:19:20.805Z,17.5
2019-05-12T11:21:00.265Z,17.3
2019-05-12T11:22:43.810Z,17.07
2019-05-12T11:24:23.460Z,16.82
2019-05-12T11:26:03.853Z,16.4
2019-05-12T11:27:43.732Z,15.99
2019-05-12T11:29:23.591Z,15.56
2019-05-12T11:31:04.520Z,15.36
2019-05-12T11:32:44.222Z,15.48
2019-05-12T11:34:23.801Z,15.96
2019-05-12T11:36:04.352Z,16.06
2019-05-12T11:37:43.894Z,16.79
2019-05-12T11:39:23.641Z,17.59
2019-05-12T11:41:15.952Z,18.4
2019-05-12T11:43:04.373Z,18.85
2019-05-12T11:44:45.228Z,19.01
2019-05-12T11:46:24.683Z,19.14
2019-05-12T11:48:09.458Z,19.36
2019-05-12T11:49:53.414Z,19.83
2019-05-12T11:51:44.875Z,20.18
2019-05-12T11:53:30.231Z,19.65
2019-05-12T11:55:13.451Z,18.84
2019-05-12T11:57:04.647Z,18.05
2019-05-12T11:58:47.223Z,17.66
2019-05-12T12:00:33.614Z,17.69
2019-05-12T12:02:13.486Z,17.87
2019-05-12T12:04:10.300Z,17.55
2019-05-12T12:05:53.731Z,17.29
2019-05-12T12:07:33.368Z,17.8
2019-05-12T12:09:30.798Z,18.42
2019-05-12T12:11:15.117Z,19.1
2019-05-12T12:13:04.502Z,19.54
2019-05-12T12:14:46.055Z,19.86
2019-05-12T12:16:30.067Z,20.26
2019-05-12T12:18:23.722Z,20.62
2019-05-12T12:20:03.709Z,20.43
2019-05-12T12:21:49.981Z,20.3
2019-05-12T12:23:33.420Z,19.52
2019-05-12T12:25:24.410Z,18.77
2019-05-12T12:27:03.956Z,18.43
2019-05-12T12:28:43.781Z,18.29
2019-05-12T12:30:23.704Z,18.47
2019-05-12T12:32:03.271Z,19.28
2019-05-12T12:33:53.809Z,19.99
2019-05-12T12:35:34.318Z,20.86
2019-05-12T12:37:18.754Z,21.39
2019-05-12T12:39:04.155Z,21.66
2019-05-12T12:40:47.949Z,22.25
2019-05-12T12:42:30.237Z,22.6
2019-05-12T12:44:24.155Z,23.02
2019-05-12T12:46:03.887Z,22.55
2019-05-12T12:48:02.603Z,21.78
2019-05-12T12:49:45.057Z,20.94
2019-05-12T12:51:27.324Z,20.68
2019-05-12T12:53:08.970Z,21.01
2019-05-12T12:54:48.387Z,20.95
2019-05-12T12:56:29.907Z,21.19
2019-05-12T12:58:13.829Z,21.43
2019-05-12T13:00:08.830Z,21.73
2019-05-12T13:02:09.103Z,21.72
2019-05-12T13:04:04.151Z,21.83
2019-05-12T13:05:54.090Z,21.63
2019-05-12T13:07:33.720Z,20.9
2019-05-12T13:09:18.021Z,20.64
2019-05-12T13:11:04.274Z,20.03
2019-05-12T13:12:43.951Z,19.6
2019-05-12T13:14:38.553Z,18.99
2019-05-12T13:16:20.709Z,19.14
2019-05-12T13:18:01.789Z,19.46
2019-05-12T13:19:48.674Z,19.85
2019-05-12T13:21:35.354Z,20.4
2019-05-12T13:23:14.904Z,20.8
2019-05-12T13:25:09.401Z,21.13
2019-05-12T13:26:50.777Z,21.3
2019-05-12T13:28:31.348Z,21.62
2019-05-12T13:30:19.681Z,21.83
2019-05-12T13:32:04.178Z,21.84
2019-05-12T13:33:44.223Z,21.75
2019-05-12T13:35:31.256Z,21.27
2019-05-12T13:37:15.330Z,20.7
2019-05-12T13:38:59.439Z,20.68
2019-05-12T13:40:39.395Z,20.7
2019-05-12T13:42:20.674Z,20.9
2019-05-12T13:44:13.635Z,20.9
2019-05-12T13:45:53.525Z,20.39
2019-05-12T13:47:39.628Z,19.91
2019-05-12T13:49:20.320Z,19.51
2019-05-12T13:51:15.689Z,18.96
2019-05-12T13:52:55.434Z,18.48
2019-05-12T13:54:53.171Z,18.05
2019-05-12T13:56:44.277Z,17.75
2019-05-12T13:58:28.065Z,17.6
2019-05-12T14:00:20.796Z,17.68
2019-05-12T14:02:00.588Z,18.59
2019-05-12T14:03:46.008Z,19.52
2019-05-12T14:05:29.945Z,20.51
2019-05-12T14:07:14.525Z,21.29
2019-05-12T14:09:00.108Z,21.67
2019-05-12T14:10:44.356Z,21.63
2019-05-12T14:12:37.305Z,21.22
2019-05-12T14:14:18.952Z,21.42
2019-05-12T14:16:02.824Z,21.75
2019-05-12T14:17:46.104Z,22.2
2019-05-12T14:19:30.203Z,22.43
2019-05-12T14:21:14.017Z,22.58
2019-05-12T14:22:53.877Z,22.75
2019-05-12T14:26:24.283Z,22.55
2019-05-12T14:28:05.244Z,21.66
2019-05-12T14:29:53.654Z,20.73
2019-05-12T14:31:52.763Z,19.88
2019-05-12T14:33:47.039Z,19.31
2019-05-12T14:35:40.570Z,18.77
2019-05-12T14:37:24.282Z,18.25
2019-05-12T14:39:06.038Z,18.13
2019-05-12T14:40:49.715Z,18.57
2019-05-12T14:42:39.643Z,19.31
2019-05-12T14:44:23.710Z,20.18
2019-05-12T14:46:06.045Z,19.98
2019-05-12T14:47:49.946Z,19.41
2019-05-12T14:49:43.569Z,18.96
2019-05-12T14:51:24.520Z,18.51
2019-05-12T14:53:04.215Z,18.17
2019-05-12T14:54:43.688Z,18.53
2019-05-12T14:56:23.448Z,19.25
2019-05-12T14:58:03.534Z,19.94
2019-05-12T14:59:55.598Z,20.64
2019-05-12T15:01:51.251Z,20.49
2019-05-12T15:03:30.920Z,20.03
2019-05-12T15:05:15.697Z,19.5
2019-05-12T15:06:59.625Z,18.84
2019-05-12T15:08:49.921Z,18.68
2019-05-12T15:10:30.494Z,19.24
2019-05-12T15:12:13.796Z,19.68
2019-05-12T15:13:54.112Z,20.05
2019-05-12T15:15:33.705Z,20.5
2019-05-12T15:17:22.159Z,20.63
2019-05-12T15:19:03.363Z,20.87
2019-05-12T15:20:55.161Z,20.96
2019-05-12T15:22:34.704Z,21.05
2019-05-12T15:24:29.624Z,21.42
2019-05-12T15:26:15.608Z,21.69
2019-05-12T15:28:00.571Z,21.55
2019-05-12T15:29:41.772Z,21.42
2019-05-12T15:31:35.662Z,20.83
2019-05-12T15:33:33.597Z,20.19
2019-05-12T15:35:18.484Z,19.72
2019-05-12T15:37:00.514Z,19.26
2019-05-12T15:38:43.687Z,19.48
2019-05-12T15:40:39.158Z,19.86
2019-05-12T15:42:23.382Z,20.24
2019-05-12T15:44:03.290Z,19.89
2019-05-12T15:45:48.881Z,19.4
2019-05-12T15:47:36.109Z,18.88
2019-05-12T15:49:15.658Z,18.44
2019-05-12T15:50:59.280Z,18.15
2019-05-12T15:52:45.852Z,17.77
2019-05-12T15:54:25.564Z,17.51
2019-05-12T15:56:16.376Z,17.22
2019-05-12T15:58:05.554Z,16.89
2019-05-12T15:59:45.241Z,16.65
2019-05-12T16:01:24.652Z,16.54
2019-05-12T16:03:04.187Z,16.46
2019-05-12T16:04:48.192Z,16.32
2019-05-12T16:06:29.819Z,16.22
2019-05-12T16:08:09.281Z,16.18
2019-05-12T16:09:50.801Z,16.14
2019-05-12T16:11:33.380Z,16.03
2019-05-12T16:13:15.292Z,15.98
2019-05-12T16:14:55.273Z,16.08
2019-05-12T16:18:26.600Z,16.3
2019-05-12T16:20:09.126Z,16.45
2019-05-12T16:21:50.709Z,16.93
2019-05-12T16:23:33.964Z,17.52
2019-05-12T16:25:15.110Z,17.52
2019-05-12T16:27:05.822Z,17.53
2019-05-12T16:28:45.193Z,17.48
2019-05-12T16:30:36.672Z,17.34
2019-05-12T16:32:26.634Z,17.07
2019-05-12T16:34:29.818Z,16.65
2019-05-12T16:36:23.637Z,16.34
2019-05-12T16:38:05.754Z,16.16
2019-05-12T16:39:59.781Z,16.05
2019-05-12T16:41:40.828Z,15.96
2019-05-12T16:43:23.755Z,15.95
2019-05-12T16:45:09.743Z,15.85
2019-05-12T16:46:54.748Z,15.78
2019-05-12T16:48:36.276Z,15.77
2019-05-12T16:50:31.030Z,15.74
2019-05-12T16:52:13.802Z,15.77
2019-05-12T16:53:53.964Z,15.6
2019-05-12T16:55:44.691Z,15.56
2019-05-12T16:57:29.667Z,15.85
2019-05-12T16:59:16.527Z,16.13
2019-05-12T17:01:03.724Z,16.22
2019-05-12T17:02:51.901Z,16.22
2019-05-12T17:04:38.449Z,16.12
2019-05-12T17:06:28.552Z,16.05
2019-05-12T17:08:15.504Z,16.35
2019-05-12T17:09:55.211Z,16.58
2019-05-12T17:11:52.725Z,16.46
2019-05-12T17:13:34.130Z,16.12
2019-05-12T17:15:23.525Z,15.91
2019-05-12T17:17:04.224Z,15.73
2019-05-12T17:18:49.209Z,15.49
2019-05-12T17:20:34.440Z,15.3
2019-05-12T17:22:25.962Z,15.12
2019-05-12T17:24:05.712Z,15.06
2019-05-12T17:25:45.434Z,14.96
2019-05-12T17:27:27.275Z,14.84
2019-05-12T17:29:08.782Z,14.7
2019-05-12T17:30:50.319Z,14.59
2019-05-12T17:32:32.426Z,14.5
2019-05-12T17:34:14.205Z,14.4
2019-05-12T17:36:02.210Z,14.27
2019-05-12T17:37:55.448Z,14.25
2019-05-12T17:39:38.796Z,14.18
2019-05-12T17:41:23.077Z,14.12
2019-05-12T17:43:15.720Z,14.06
2019-05-12T17:44:55.642Z,14.05
2019-05-12T17:46:37.794Z,14.06
2019-05-12T17:48:20.646Z,13.99
2019-05-12T17:50:06.410Z,13.93
2019-05-12T17:51:50.196Z,13.85
2019-05-12T17:53:46.473Z,13.79
2019-05-12T17:55:29.016Z,13.73
2019-05-12T17:57:09.402Z,13.63
2019-05-12T17:59:00.667Z,13.64
2019-05-12T18:00:47.444Z,13.58
2019-05-12T18:02:30.419Z,13.51
2019-05-12T18:04:13.814Z,13.46
2019-05-12T18:06:26.629Z,13.38
2019-05-12T18:08:10.723Z,13.35
2019-05-12T18:09:56.546Z,13.34
2019-05-12T18:11:40.798Z,13.26
2019-05-12T18:13:34.386Z,13.24
2019-05-12T18:15:23.195Z,13.21
2019-05-12T18:17:24.399Z,13.19
2019-05-12T18:19:08.818Z,13.18
2019-05-12T18:20:56.029Z,13.19
2019-05-12T18:22:39.231Z,13.18
2019-05-12T18:24:25.326Z,13.14
2019-05-12T18:26:11.406Z,13.1
2019-05-12T18:27:54.669Z,13.04
2019-05-12T18:29:34.375Z,13
2019-05-12T18:31:14.119Z,12.96
2019-05-12T18:33:03.768Z,12.92
2019-05-12T18:35:13.595Z,12.88
2019-05-12T18:36:55.653Z,12.85
2019-05-12T18:38:40.169Z,12.79
2019-05-12T18:40:24.137Z,12.78
2019-05-12T18:42:08.808Z,12.77
2019-05-12T18:43:50.385Z,12.74
2019-05-12T18:45:41.758Z,12.71
2019-05-12T18:47:36.412Z,12.7
2019-05-12T18:49:18.699Z,12.65
2019-05-12T18:51:02.724Z,12.62
2019-05-12T18:52:55.079Z,12.61
2019-05-12T18:54:34.646Z,12.58
2019-05-12T18:56:33.585Z,12.53
2019-05-12T18:58:14.788Z,12.49
2019-05-12T19:00:09.971Z,12.47
2019-05-12T19:01:51.433Z,12.43
2019-05-12T19:03:44.676Z,12.42
2019-05-12T19:05:39.254Z,12.41
2019-05-12T19:07:20.188Z,12.38
2019-05-12T19:09:26.676Z,12.38
2019-05-12T19:11:18.754Z,12.36
2019-05-12T19:13:01.848Z,12.34
2019-05-12T19:14:49.926Z,12.31
2019-05-12T19:16:32.773Z,12.3
2019-05-12T19:18:17.467Z,12.28
2019-05-12T19:20:19.938Z,12.27
2019-05-12T19:22:10.719Z,12.28
2019-05-12T19:23:54.287Z,12.25
2019-05-12T19:25:35.434Z,12.21
2019-05-12T19:27:20.834Z,12.2
2019-05-12T19:29:03.958Z,12.2
2019-05-12T19:30:43.912Z,12.18
2019-05-12T19:32:29.412Z,12.14
2019-05-12T19:34:19.517Z,12.13
2019-05-12T19:36:07.925Z,12.07
2019-05-12T19:37:48.475Z,12.06
2019-05-12T19:39:30.400Z,12.04
2019-05-12T19:41:13.910Z,12.01
2019-05-12T19:43:01.796Z,11.98
2019-05-12T19:44:46.091Z,11.94
2019-05-12T19:46:25.553Z,11.89
2019-05-12T19:48:05.168Z,11.85
2019-05-12T19:50:06.694Z,11.79
2019-05-12T19:52:00.143Z,13.61
2019-05-12T19:53:43.616Z,13.05
2019-05-12T19:55:24.109Z,11.78
2019-05-12T19:57:03.784Z,12.9
2019-05-12T19:59:07.622Z,11.59
2019-05-12T20:00:49.358Z,12.64
2019-05-12T20:02:30.638Z,12.65
2019-05-12T20:04:14.103Z,12.64
2019-05-12T20:06:30.588Z,12.28
2019-05-12T20:08:15.650Z,13.17
2019-05-12T20:10:00.163Z,12.51
2019-05-12T20:11:42.607Z,12.44
2019-05-12T20:13:24.070Z,12.36
2019-05-12T20:15:15.317Z,12.29
2019-05-12T20:16:55.042Z,12.28
2019-05-12T20:20:35.884Z,12.16
2019-05-12T20:22:21.322Z,12.1
2019-05-12T20:24:03.688Z,12.05
2019-05-12T20:25:44.312Z,12.61
2019-05-12T20:27:24.644Z,11.99
2019-05-12T20:29:04.730Z,11.93
2019-05-12T20:30:44.112Z,11.88
2019-05-12T20:32:26.501Z,12.44
2019-05-12T20:34:10.663Z,11.81
2019-05-12T20:35:56.542Z,12.35
2019-05-12T20:37:52.905Z,12.3
2019-05-12T20:39:35.463Z,11.61
2019-05-12T20:41:20.049Z,11.53
2019-05-12T20:43:08.112Z,12.01
2019-05-12T20:45:02.220Z,11.85
2019-05-12T20:46:47.577Z,11.71
2019-05-12T20:48:31.388Z,10.94
2019-05-12T20:50:14.341Z,10.8
2019-05-12T20:52:09.359Z,10.68
2019-05-12T20:53:52.590Z,11.25
2019-05-12T20:55:36.405Z,10.62
2019-05-12T20:57:20.745Z,10.56
2019-05-12T20:59:03.721Z,10.55
2019-05-12T21:00:55.560Z,10.53
2019-05-12T21:02:40.206Z,10.51
2019-05-12T21:04:30.783Z,10.46
2019-05-12T21:06:17.992Z,10.42
2019-05-12T21:08:03.062Z,10.4
2019-05-12T21:09:51.394Z,10.98
2019-05-12T21:11:33.215Z,10.36
2019-05-12T21:13:26.980Z,10.96
2019-05-12T21:15:15.800Z,10.37
2019-05-12T21:17:38.463Z,10.04
2019-05-12T21:19:18.920Z,10.95
2019-05-12T21:21:04.341Z,10.27
2019-05-12T21:22:45.056Z,10.85
2019-05-12T21:24:29.321Z,10.22
2019-05-12T21:26:16.013Z,10.15
2019-05-12T21:28:02.326Z,10.12
2019-05-12T21:29:45.403Z,10.12
2019-05-12T21:31:26.572Z,10.09
2019-05-12T21:33:14.656Z,10.63
2019-05-12T21:34:57.666Z,9.98
2019-05-12T21:37:06.540Z,9.65
2019-05-12T21:38:45.953Z,10.54
2019-05-12T21:40:30.150Z,9.88
2019-05-12T21:42:11.049Z,9.82
2019-05-12T21:43:50.550Z,9.79
2019-05-12T21:45:39.473Z,10.34
2019-05-12T21:47:19.134Z,9.67
2019-05-12T21:49:06.579Z,9.66
2019-05-12T21:50:55.540Z,9.57
2019-05-12T21:52:38.919Z,9.48
2019-05-12T21:54:20.605Z,9.96
2019-05-12T21:56:13.879Z,9.21
2019-05-12T21:57:53.838Z,9.14
2019-05-12T21:59:45.737Z,9.08
2019-05-12T22:01:25.131Z,9.07
2019-05-12T22:03:16.514Z,9.04
2019-05-12T22:04:56.115Z,9.01
2019-05-12T22:06:36.485Z,9.59
2019-05-12T22:08:21.948Z,8.97
2019-05-12T22:10:04.752Z,8.97
2019-05-12T22:13:35.032Z,9.53
2019-05-12T22:15:29.163Z,8.94
2019-05-12T22:17:10.201Z,8.92
2019-05-12T22:18:55.816Z,8.91
2019-05-12T22:20:39.766Z,8.9
2019-05-12T22:22:35.099Z,8.88
2019-05-12T22:24:14.806Z,8.86
2019-05-12T22:26:07.806Z,8.83
2019-05-12T22:27:47.219Z,8.82
2019-05-12T22:29:36.469Z,9.4
2019-05-12T22:31:18.408Z,8.78
2019-05-12T22:32:59.365Z,8.74
2019-05-12T22:34:48.619Z,8.73
2019-05-12T22:36:30.712Z,8.73
2019-05-12T22:38:16.435Z,8.76
2019-05-12T22:40:14.330Z,9.38
2019-05-12T22:41:58.298Z,8.77
2019-05-12T22:43:49.474Z,9.41
2019-05-12T22:45:35.718Z,8.78
2019-05-12T22:47:25.640Z,8.79
2019-05-12T22:49:05.029Z,8.73
2019-05-12T22:50:55.564Z,8.71
2019-05-12T22:52:49.498Z,8.68
2019-05-12T22:54:33.540Z,8.61
2019-05-12T22:56:23.805Z,8.59
2019-05-12T22:58:03.248Z,8.57
2019-05-12T22:59:55.874Z,8.56
2019-05-12T23:01:41.355Z,8.51
2019-05-12T23:03:27.594Z,9.12
2019-05-12T23:05:10.196Z,8.47
2019-05-12T23:07:03.950Z,9.09